sensor_id;sensor_type;location;lat;lon;timestamp;temperature;humidity
74171;DHT22;62526;50.948;6.590;2023-03-23T00:01:43;13.80;99.90
74171;DHT22;62526;50.948;6.590;2023-03-23T00:04:10;13.80;99.90
74171;DHT22;62526;50.948;6.590;2023-03-23T00:06:37;13.80;99.90
74171;DHT22;62526;50.948;6.590;2023-03-23T00:09:04;13.80;99.90
74171;DHT22;62526;50.948;6.590;2023-03-23T00:11:32;13.70;99.90
74171;DHT22;62526;50.948;6.590;2023-03-23T00:13:59;13.70;99.90
74171;DHT22;62526;50.948;6.590;2023-03-23T00:16:25;13.70;99.90
74171;DHT22;62526;50.948;6.590;2023-03-23T00:18:56;13.70;99.90
74171;DHT22;62526;50.948;6.590;2023-03-23T00:21:22;13.70;99.90
74171;DHT22;62526;50.948;6.590;2023-03-23T00:23:49;13.80;99.90
74171;DHT22;62526;50.948;6.590;2023-03-23T00:26:16;13.80;99.90
74171;DHT22;62526;50.948;6.590;2023-03-23T00:28:43;13.80;99.90
74171;DHT22;62526;50.948;6.590;2023-03-23T00:31:10;13.80;99.90
74171;DHT22;62526;50.948;6.590;2023-03-23T00:33:37;13.70;99.90
74171;DHT22;62526;50.948;6.590;2023-03-23T00:36:04;13.70;99.90
74171;DHT22;62526;50.948;6.590;2023-03-23T00:38:31;13.70;99.90
74171;DHT22;62526;50.948;6.590;2023-03-23T00:40:57;13.70;99.90
74171;DHT22;62526;50.948;6.590;2023-03-23T00:43:24;13.80;99.90
74171;DHT22;62526;50.948;6.590;2023-03-23T00:45:51;13.70;99.90
74171;DHT22;62526;50.948;6.590;2023-03-23T00:48:20;13.70;99.90
74171;DHT22;62526;50.948;6.590;2023-03-23T00:50:46;13.70;99.90
74171;DHT22;62526;50.948;6.590;2023-03-23T00:53:13;13.70;99.90
74171;DHT22;62526;50.948;6.590;2023-03-23T00:55:41;13.70;99.90
74171;DHT22;62526;50.948;6.590;2023-03-23T00:58:09;13.70;99.90
74171;DHT22;62526;50.948;6.590;2023-03-23T01:00:35;13.70;99.90
74171;DHT22;62526;50.948;6.590;2023-03-23T01:03:02;13.70;99.90
74171;DHT22;62526;50.948;6.590;2023-03-23T01:05:28;13.60;99.90
74171;DHT22;62526;50.948;6.590;2023-03-23T01:07:56;13.60;99.90
74171;DHT22;62526;50.948;6.590;2023-03-23T01:10:22;13.60;99.90
74171;DHT22;62526;50.948;6.590;2023-03-23T01:12:50;13.50;99.90
74171;DHT22;62526;50.948;6.590;2023-03-23T01:15:17;13.50;99.90
74171;DHT22;62526;50.948;6.590;2023-03-23T01:17:44;13.50;99.90
74171;DHT22;62526;50.948;6.590;2023-03-23T01:20:11;13.50;99.90
74171;DHT22;62526;50.948;6.590;2023-03-23T01:22:37;13.50;99.90
74171;DHT22;62526;50.948;6.590;2023-03-23T01:25:03;13.40;99.90
74171;DHT22;62526;50.948;6.590;2023-03-23T01:27:30;14.30;99.90
74171;DHT22;62526;50.948;6.590;2023-03-23T01:29:57;13.30;99.90
74171;DHT22;62526;50.948;6.590;2023-03-23T01:32:24;13.20;99.90
74171;DHT22;62526;50.948;6.590;2023-03-23T01:34:51;13.10;99.90
74171;DHT22;62526;50.948;6.590;2023-03-23T01:37:18;13.10;99.90
74171;DHT22;62526;50.948;6.590;2023-03-23T01:39:45;12.90;99.90
74171;DHT22;62526;50.948;6.590;2023-03-23T01:42:12;12.90;99.90
74171;DHT22;62526;50.948;6.590;2023-03-23T01:45:26;12.80;99.90
74171;DHT22;62526;50.948;6.590;2023-03-23T01:47:35;12.80;99.90
74171;DHT22;62526;50.948;6.590;2023-03-23T01:50:02;12.80;99.90
74171;DHT22;62526;50.948;6.590;2023-03-23T01:52:30;12.70;99.90
74171;DHT22;62526;50.948;6.590;2023-03-23T01:54:57;12.70;99.90
74171;DHT22;62526;50.948;6.590;2023-03-23T01:57:24;12.80;99.90
74171;DHT22;62526;50.948;6.590;2023-03-23T01:59:51;12.80;99.90
74171;DHT22;62526;50.948;6.590;2023-03-23T02:02:18;12.80;99.90
74171;DHT22;62526;50.948;6.590;2023-03-23T02:04:44;12.80;99.90
74171;DHT22;62526;50.948;6.590;2023-03-23T02:07:12;12.70;99.90
74171;DHT22;62526;50.948;6.590;2023-03-23T02:09:39;12.80;99.90
74171;DHT22;62526;50.948;6.590;2023-03-23T02:12:06;12.80;99.90
74171;DHT22;62526;50.948;6.590;2023-03-23T02:14:32;12.80;99.90
74171;DHT22;62526;50.948;6.590;2023-03-23T02:17:05;12.80;99.90
74171;DHT22;62526;50.948;6.590;2023-03-23T02:22:38;12.70;99.90
74171;DHT22;62526;50.948;6.590;2023-03-23T02:28:05;12.80;99.90
74171;DHT22;62526;50.948;6.590;2023-03-23T02:30:53;12.80;99.90
74171;DHT22;62526;50.948;6.590;2023-03-23T02:33:58;12.90;99.90
74171;DHT22;62526;50.948;6.590;2023-03-23T02:36:23;12.90;99.90
74171;DHT22;62526;50.948;6.590;2023-03-23T02:39:00;12.90;99.90
74171;DHT22;62526;50.948;6.590;2023-03-23T02:41:24;12.90;99.90
74171;DHT22;62526;50.948;6.590;2023-03-23T02:43:51;12.90;99.90
74171;DHT22;62526;50.948;6.590;2023-03-23T02:46:18;12.90;99.90
74171;DHT22;62526;50.948;6.590;2023-03-23T02:48:45;13.00;99.90
74171;DHT22;62526;50.948;6.590;2023-03-23T02:51:12;13.00;99.90
74171;DHT22;62526;50.948;6.590;2023-03-23T02:53:40;13.00;99.90
74171;DHT22;62526;50.948;6.590;2023-03-23T02:56:06;13.00;99.90
74171;DHT22;62526;50.948;6.590;2023-03-23T02:58:33;13.00;99.90
74171;DHT22;62526;50.948;6.590;2023-03-23T03:00:59;13.00;99.90
74171;DHT22;62526;50.948;6.590;2023-03-23T03:03:27;13.00;99.90
74171;DHT22;62526;50.948;6.590;2023-03-23T03:06:06;13.00;99.90
74171;DHT22;62526;50.948;6.590;2023-03-23T03:08:31;13.00;99.90
74171;DHT22;62526;50.948;6.590;2023-03-23T03:10:59;13.00;99.90
74171;DHT22;62526;50.948;6.590;2023-03-23T03:14:07;13.00;99.90
74171;DHT22;62526;50.948;6.590;2023-03-23T03:16:32;13.00;99.90
74171;DHT22;62526;50.948;6.590;2023-03-23T03:19:08;13.00;99.90
74171;DHT22;62526;50.948;6.590;2023-03-23T03:21:35;13.00;99.90
74171;DHT22;62526;50.948;6.590;2023-03-23T03:24:01;13.00;99.90
74171;DHT22;62526;50.948;6.590;2023-03-23T03:26:27;13.00;99.90
74171;DHT22;62526;50.948;6.590;2023-03-23T03:28:54;13.10;99.90
74171;DHT22;62526;50.948;6.590;2023-03-23T03:31:21;13.10;99.90
74171;DHT22;62526;50.948;6.590;2023-03-23T03:33:48;13.10;99.90
74171;DHT22;62526;50.948;6.590;2023-03-23T03:36:16;13.10;99.90
74171;DHT22;62526;50.948;6.590;2023-03-23T03:38:43;13.00;99.90
74171;DHT22;62526;50.948;6.590;2023-03-23T03:41:09;13.00;99.90
74171;DHT22;62526;50.948;6.590;2023-03-23T03:43:35;13.00;99.90
74171;DHT22;62526;50.948;6.590;2023-03-23T03:46:02;13.10;99.90
74171;DHT22;62526;50.948;6.590;2023-03-23T03:48:29;13.10;99.90
74171;DHT22;62526;50.948;6.590;2023-03-23T03:50:55;13.10;99.90
74171;DHT22;62526;50.948;6.590;2023-03-23T03:53:23;13.20;99.90
74171;DHT22;62526;50.948;6.590;2023-03-23T03:55:50;13.20;99.90
74171;DHT22;62526;50.948;6.590;2023-03-23T03:58:17;13.10;99.90
74171;DHT22;62526;50.948;6.590;2023-03-23T04:00:43;13.10;99.90
74171;DHT22;62526;50.948;6.590;2023-03-23T04:03:10;13.10;99.90
74171;DHT22;62526;50.948;6.590;2023-03-23T04:05:37;13.10;99.90
74171;DHT22;62526;50.948;6.590;2023-03-23T04:08:04;13.20;99.90
74171;DHT22;62526;50.948;6.590;2023-03-23T04:10:31;13.10;99.90
74171;DHT22;62526;50.948;6.590;2023-03-23T04:12:58;13.20;99.90
74171;DHT22;62526;50.948;6.590;2023-03-23T04:15:25;13.30;99.90
74171;DHT22;62526;50.948;6.590;2023-03-23T04:17:51;13.30;99.90
74171;DHT22;62526;50.948;6.590;2023-03-23T04:20:18;13.30;99.90
74171;DHT22;62526;50.948;6.590;2023-03-23T04:22:46;13.20;99.90
74171;DHT22;62526;50.948;6.590;2023-03-23T04:25:12;13.20;99.90
74171;DHT22;62526;50.948;6.590;2023-03-23T04:27:39;13.20;99.90
74171;DHT22;62526;50.948;6.590;2023-03-23T04:30:06;13.20;99.90
74171;DHT22;62526;50.948;6.590;2023-03-23T04:32:33;13.20;99.90
74171;DHT22;62526;50.948;6.590;2023-03-23T04:35:00;13.30;99.90
74171;DHT22;62526;50.948;6.590;2023-03-23T04:37:27;13.20;99.90
74171;DHT22;62526;50.948;6.590;2023-03-23T04:39:55;13.30;99.90
74171;DHT22;62526;50.948;6.590;2023-03-23T04:42:21;13.20;99.90
74171;DHT22;62526;50.948;6.590;2023-03-23T04:44:48;13.20;99.90
74171;DHT22;62526;50.948;6.590;2023-03-23T04:47:16;13.20;99.90
74171;DHT22;62526;50.948;6.590;2023-03-23T04:49:43;13.20;99.90
74171;DHT22;62526;50.948;6.590;2023-03-23T04:52:10;13.20;99.90
74171;DHT22;62526;50.948;6.590;2023-03-23T04:54:37;13.20;99.90
74171;DHT22;62526;50.948;6.590;2023-03-23T04:57:04;13.20;99.90
74171;DHT22;62526;50.948;6.590;2023-03-23T04:59:30;13.20;99.90
74171;DHT22;62526;50.948;6.590;2023-03-23T05:01:57;13.20;99.90
74171;DHT22;62526;50.948;6.590;2023-03-23T05:04:25;13.20;99.90
74171;DHT22;62526;50.948;6.590;2023-03-23T05:06:51;13.10;99.90
74171;DHT22;62526;50.948;6.590;2023-03-23T05:09:18;13.20;99.90
74171;DHT22;62526;50.948;6.590;2023-03-23T05:11:45;13.20;99.90
74171;DHT22;62526;50.948;6.590;2023-03-23T05:14:11;13.20;99.90
74171;DHT22;62526;50.948;6.590;2023-03-23T05:16:38;13.10;99.90
74171;DHT22;62526;50.948;6.590;2023-03-23T05:19:05;13.10;99.90
74171;DHT22;62526;50.948;6.590;2023-03-23T05:21:33;13.20;99.90
74171;DHT22;62526;50.948;6.590;2023-03-23T05:23:59;13.10;99.90
74171;DHT22;62526;50.948;6.590;2023-03-23T05:26:26;13.10;99.90
74171;DHT22;62526;50.948;6.590;2023-03-23T05:28:52;13.10;99.90
74171;DHT22;62526;50.948;6.590;2023-03-23T05:31:19;13.10;99.90
74171;DHT22;62526;50.948;6.590;2023-03-23T05:33:46;13.00;99.90
74171;DHT22;62526;50.948;6.590;2023-03-23T05:36:12;13.10;99.90
74171;DHT22;62526;50.948;6.590;2023-03-23T05:38:40;13.00;99.90
74171;DHT22;62526;50.948;6.590;2023-03-23T05:41:07;13.00;99.90
74171;DHT22;62526;50.948;6.590;2023-03-23T05:43:33;12.90;99.90
74171;DHT22;62526;50.948;6.590;2023-03-23T05:46:00;12.90;99.90
74171;DHT22;62526;50.948;6.590;2023-03-23T05:48:26;12.90;99.90
74171;DHT22;62526;50.948;6.590;2023-03-23T05:50:53;12.90;99.90
74171;DHT22;62526;50.948;6.590;2023-03-23T05:53:20;12.90;99.90
74171;DHT22;62526;50.948;6.590;2023-03-23T05:55:46;12.80;99.90
74171;DHT22;62526;50.948;6.590;2023-03-23T05:58:13;12.90;99.90
74171;DHT22;62526;50.948;6.590;2023-03-23T06:00:39;12.80;99.90
74171;DHT22;62526;50.948;6.590;2023-03-23T06:03:06;12.80;99.90
74171;DHT22;62526;50.948;6.590;2023-03-23T06:05:33;12.80;99.90
74171;DHT22;62526;50.948;6.590;2023-03-23T06:07:59;12.80;99.90
74171;DHT22;62526;50.948;6.590;2023-03-23T06:10:26;12.90;99.90
74171;DHT22;62526;50.948;6.590;2023-03-23T06:12:53;12.90;99.90
74171;DHT22;62526;50.948;6.590;2023-03-23T06:15:21;13.00;99.90
74171;DHT22;62526;50.948;6.590;2023-03-23T06:17:48;12.90;99.90
74171;DHT22;62526;50.948;6.590;2023-03-23T06:20:15;12.90;99.90
74171;DHT22;62526;50.948;6.590;2023-03-23T06:22:41;12.90;99.90
74171;DHT22;62526;50.948;6.590;2023-03-23T06:25:09;13.00;99.90
74171;DHT22;62526;50.948;6.590;2023-03-23T06:27:36;13.00;99.90
74171;DHT22;62526;50.948;6.590;2023-03-23T06:30:04;12.10;99.90
74171;DHT22;62526;50.948;6.590;2023-03-23T06:32:30;12.90;99.90
74171;DHT22;62526;50.948;6.590;2023-03-23T06:34:57;13.00;99.90
74171;DHT22;62526;50.948;6.590;2023-03-23T06:37:23;12.90;99.90
74171;DHT22;62526;50.948;6.590;2023-03-23T06:39:50;13.10;99.90
74171;DHT22;62526;50.948;6.590;2023-03-23T06:42:17;13.00;99.90
74171;DHT22;62526;50.948;6.590;2023-03-23T06:44:43;13.00;99.90
74171;DHT22;62526;50.948;6.590;2023-03-23T06:47:10;13.10;99.90
74171;DHT22;62526;50.948;6.590;2023-03-23T06:49:37;13.00;99.90
74171;DHT22;62526;50.948;6.590;2023-03-23T06:52:03;13.10;99.90
74171;DHT22;62526;50.948;6.590;2023-03-23T06:54:30;13.20;99.90
74171;DHT22;62526;50.948;6.590;2023-03-23T06:56:58;13.20;99.90
74171;DHT22;62526;50.948;6.590;2023-03-23T06:59:24;13.20;99.90
74171;DHT22;62526;50.948;6.590;2023-03-23T07:01:51;13.40;99.90
74171;DHT22;62526;50.948;6.590;2023-03-23T07:04:18;13.40;99.90
74171;DHT22;62526;50.948;6.590;2023-03-23T07:06:46;13.40;99.90
74171;DHT22;62526;50.948;6.590;2023-03-23T07:09:12;13.30;99.90
74171;DHT22;62526;50.948;6.590;2023-03-23T07:11:38;13.40;99.90
74171;DHT22;62526;50.948;6.590;2023-03-23T07:14:05;13.50;99.90
74171;DHT22;62526;50.948;6.590;2023-03-23T07:16:32;13.40;99.90
74171;DHT22;62526;50.948;6.590;2023-03-23T07:18:59;13.50;99.90
74171;DHT22;62526;50.948;6.590;2023-03-23T07:21:26;13.50;99.90
74171;DHT22;62526;50.948;6.590;2023-03-23T07:23:52;13.50;99.90
74171;DHT22;62526;50.948;6.590;2023-03-23T07:26:19;13.50;99.90
74171;DHT22;62526;50.948;6.590;2023-03-23T07:28:46;13.60;99.90
74171;DHT22;62526;50.948;6.590;2023-03-23T07:31:14;13.60;99.90
74171;DHT22;62526;50.948;6.590;2023-03-23T07:33:47;13.60;99.90
74171;DHT22;62526;50.948;6.590;2023-03-23T07:36:14;13.60;99.90
74171;DHT22;62526;50.948;6.590;2023-03-23T07:38:41;13.60;99.90
74171;DHT22;62526;50.948;6.590;2023-03-23T07:41:07;13.70;99.90
74171;DHT22;62526;50.948;6.590;2023-03-23T07:43:34;13.70;99.90
74171;DHT22;62526;50.948;6.590;2023-03-23T07:46:01;13.70;99.90
74171;DHT22;62526;50.948;6.590;2023-03-23T07:48:28;13.70;99.90
74171;DHT22;62526;50.948;6.590;2023-03-23T07:50:55;13.80;99.90
74171;DHT22;62526;50.948;6.590;2023-03-23T07:53:22;13.80;99.90
74171;DHT22;62526;50.948;6.590;2023-03-23T07:55:50;13.90;99.90
74171;DHT22;62526;50.948;6.590;2023-03-23T07:58:17;13.90;99.90
74171;DHT22;62526;50.948;6.590;2023-03-23T08:00:43;13.90;99.90
74171;DHT22;62526;50.948;6.590;2023-03-23T08:03:10;13.90;99.90
74171;DHT22;62526;50.948;6.590;2023-03-23T08:05:37;13.90;99.90
74171;DHT22;62526;50.948;6.590;2023-03-23T08:08:04;13.90;99.90
74171;DHT22;62526;50.948;6.590;2023-03-23T08:10:30;13.90;99.90
74171;DHT22;62526;50.948;6.590;2023-03-23T08:12:57;14.00;99.90
74171;DHT22;62526;50.948;6.590;2023-03-23T08:15:24;14.20;99.90
74171;DHT22;62526;50.948;6.590;2023-03-23T08:17:50;14.10;99.90
74171;DHT22;62526;50.948;6.590;2023-03-23T08:20:18;14.10;99.90
74171;DHT22;62526;50.948;6.590;2023-03-23T08:22:51;14.00;99.90
74171;DHT22;62526;50.948;6.590;2023-03-23T08:25:12;14.00;99.90
74171;DHT22;62526;50.948;6.590;2023-03-23T08:27:38;14.20;99.90
74171;DHT22;62526;50.948;6.590;2023-03-23T08:30:10;14.20;99.90
74171;DHT22;62526;50.948;6.590;2023-03-23T08:32:36;14.20;99.90
74171;DHT22;62526;50.948;6.590;2023-03-23T08:35:03;14.20;99.90
74171;DHT22;62526;50.948;6.590;2023-03-23T08:37:29;14.20;99.90
74171;DHT22;62526;50.948;6.590;2023-03-23T08:39:57;14.10;99.90
74171;DHT22;62526;50.948;6.590;2023-03-23T08:42:24;14.10;99.90
74171;DHT22;62526;50.948;6.590;2023-03-23T08:44:50;14.20;99.90
74171;DHT22;62526;50.948;6.590;2023-03-23T08:47:17;14.40;99.90
74171;DHT22;62526;50.948;6.590;2023-03-23T08:49:43;14.50;99.90
74171;DHT22;62526;50.948;6.590;2023-03-23T08:52:10;14.40;99.90
74171;DHT22;62526;50.948;6.590;2023-03-23T08:54:37;14.40;99.90
74171;DHT22;62526;50.948;6.590;2023-03-23T08:57:08;14.40;99.90
74171;DHT22;62526;50.948;6.590;2023-03-23T08:59:36;14.60;99.90
74171;DHT22;62526;50.948;6.590;2023-03-23T09:02:04;14.50;99.90
74171;DHT22;62526;50.948;6.590;2023-03-23T09:04:30;14.50;99.90
74171;DHT22;62526;50.948;6.590;2023-03-23T09:06:57;14.50;99.90
74171;DHT22;62526;50.948;6.590;2023-03-23T09:09:24;14.60;99.90
74171;DHT22;62526;50.948;6.590;2023-03-23T09:11:52;14.80;99.90
74171;DHT22;62526;50.948;6.590;2023-03-23T09:14:19;14.60;99.90
74171;DHT22;62526;50.948;6.590;2023-03-23T09:16:45;14.40;99.90
74171;DHT22;62526;50.948;6.590;2023-03-23T09:19:13;14.60;99.90
74171;DHT22;62526;50.948;6.590;2023-03-23T09:21:39;14.60;99.90
74171;DHT22;62526;50.948;6.590;2023-03-23T09:24:06;14.70;99.90
74171;DHT22;62526;50.948;6.590;2023-03-23T09:26:34;14.70;99.90
74171;DHT22;62526;50.948;6.590;2023-03-23T09:29:00;14.70;99.90
74171;DHT22;62526;50.948;6.590;2023-03-23T09:31:27;14.70;99.90
74171;DHT22;62526;50.948;6.590;2023-03-23T09:34:02;14.80;99.90
74171;DHT22;62526;50.948;6.590;2023-03-23T09:36:28;14.90;99.90
74171;DHT22;62526;50.948;6.590;2023-03-23T09:38:55;14.60;99.90
74171;DHT22;62526;50.948;6.590;2023-03-23T09:41:32;14.60;99.90
74171;DHT22;62526;50.948;6.590;2023-03-23T09:44:08;14.60;99.90
74171;DHT22;62526;50.948;6.590;2023-03-23T09:46:42;14.60;99.90
74171;DHT22;62526;50.948;6.590;2023-03-23T09:49:12;14.60;99.90
74171;DHT22;62526;50.948;6.590;2023-03-23T09:51:42;14.80;99.90
74171;DHT22;62526;50.948;6.590;2023-03-23T09:54:19;14.90;99.90
74171;DHT22;62526;50.948;6.590;2023-03-23T09:56:45;14.90;99.90
74171;DHT22;62526;50.948;6.590;2023-03-23T09:59:34;15.10;99.90
74171;DHT22;62526;50.948;6.590;2023-03-23T10:01:59;15.00;99.90
74171;DHT22;62526;50.948;6.590;2023-03-23T10:04:30;14.90;99.90
74171;DHT22;62526;50.948;6.590;2023-03-23T10:06:58;14.90;99.90
74171;DHT22;62526;50.948;6.590;2023-03-23T10:09:23;14.90;99.90
74171;DHT22;62526;50.948;6.590;2023-03-23T10:12:02;15.00;99.90
74171;DHT22;62526;50.948;6.590;2023-03-23T10:14:33;14.70;99.90
74171;DHT22;62526;50.948;6.590;2023-03-23T10:17:00;14.60;99.90
74171;DHT22;62526;50.948;6.590;2023-03-23T10:19:29;14.70;99.90
74171;DHT22;62526;50.948;6.590;2023-03-23T10:21:55;14.70;99.90
74171;DHT22;62526;50.948;6.590;2023-03-23T10:24:21;14.70;99.90
74171;DHT22;62526;50.948;6.590;2023-03-23T10:29:31;14.80;99.90
74171;DHT22;62526;50.948;6.590;2023-03-23T10:32:02;15.00;99.90
74171;DHT22;62526;50.948;6.590;2023-03-23T10:34:32;15.00;99.90
74171;DHT22;62526;50.948;6.590;2023-03-23T10:37:05;14.90;99.90
74171;DHT22;62526;50.948;6.590;2023-03-23T10:39:32;15.00;99.90
74171;DHT22;62526;50.948;6.590;2023-03-23T10:41:59;15.20;99.90
74171;DHT22;62526;50.948;6.590;2023-03-23T10:44:24;15.30;99.90
74171;DHT22;62526;50.948;6.590;2023-03-23T10:47:03;15.40;99.90
74171;DHT22;62526;50.948;6.590;2023-03-23T10:49:31;15.50;99.90
74171;DHT22;62526;50.948;6.590;2023-03-23T10:52:20;15.40;99.90
74171;DHT22;62526;50.948;6.590;2023-03-23T10:54:48;15.40;99.90
74171;DHT22;62526;50.948;6.590;2023-03-23T10:59:46;15.50;99.90
74171;DHT22;62526;50.948;6.590;2023-03-23T11:02:15;15.70;99.90
74171;DHT22;62526;50.948;6.590;2023-03-23T11:04:41;15.50;99.90
74171;DHT22;62526;50.948;6.590;2023-03-23T11:07:10;15.70;99.90
74171;DHT22;62526;50.948;6.590;2023-03-23T11:09:37;15.70;99.90
74171;DHT22;62526;50.948;6.590;2023-03-23T11:12:03;15.60;99.90
74171;DHT22;62526;50.948;6.590;2023-03-23T11:14:32;15.90;99.90
74171;DHT22;62526;50.948;6.590;2023-03-23T11:17:00;16.20;99.90
74171;DHT22;62526;50.948;6.590;2023-03-23T11:19:28;16.00;99.90
74171;DHT22;62526;50.948;6.590;2023-03-23T11:22:05;15.70;99.90
74171;DHT22;62526;50.948;6.590;2023-03-23T11:24:22;15.70;99.90
74171;DHT22;62526;50.948;6.590;2023-03-23T11:26:48;15.70;99.90
74171;DHT22;62526;50.948;6.590;2023-03-23T11:29:18;15.80;99.90
74171;DHT22;62526;50.948;6.590;2023-03-23T11:31:45;15.60;99.90
74171;DHT22;62526;50.948;6.590;2023-03-23T11:36:57;14.90;99.90
74171;DHT22;62526;50.948;6.590;2023-03-23T11:39:23;14.90;99.90
74171;DHT22;62526;50.948;6.590;2023-03-23T11:41:49;14.70;99.90
74171;DHT22;62526;50.948;6.590;2023-03-23T11:44:16;14.70;99.90
74171;DHT22;62526;50.948;6.590;2023-03-23T11:47:01;14.80;99.90
74171;DHT22;62526;50.948;6.590;2023-03-23T11:49:33;15.00;99.90
74171;DHT22;62526;50.948;6.590;2023-03-23T11:52:01;15.40;99.90
74171;DHT22;62526;50.948;6.590;2023-03-23T11:54:33;15.80;99.90
74171;DHT22;62526;50.948;6.590;2023-03-23T11:56:58;16.10;99.90
74171;DHT22;62526;50.948;6.590;2023-03-23T11:59:28;16.30;99.90
74171;DHT22;62526;50.948;6.590;2023-03-23T12:01:59;16.20;99.90
74171;DHT22;62526;50.948;6.590;2023-03-23T12:04:30;17.00;99.90
74171;DHT22;62526;50.948;6.590;2023-03-23T12:10:39;16.10;99.90
74171;DHT22;62526;50.948;6.590;2023-03-23T12:15:05;16.90;99.90
74171;DHT22;62526;50.948;6.590;2023-03-23T12:20:19;16.30;99.90
74171;DHT22;62526;50.948;6.590;2023-03-23T12:22:52;16.10;99.90
74171;DHT22;62526;50.948;6.590;2023-03-23T12:28:22;16.30;99.90
74171;DHT22;62526;50.948;6.590;2023-03-23T12:31:09;16.00;99.90
74171;DHT22;62526;50.948;6.590;2023-03-23T12:33:39;16.10;99.90
74171;DHT22;62526;50.948;6.590;2023-03-23T12:36:24;16.00;99.90
74171;DHT22;62526;50.948;6.590;2023-03-23T12:39:00;16.30;99.90
74171;DHT22;62526;50.948;6.590;2023-03-23T12:41:33;16.40;99.90
74171;DHT22;62526;50.948;6.590;2023-03-23T12:43:59;16.50;99.90
74171;DHT22;62526;50.948;6.590;2023-03-23T12:46:35;16.60;99.90
74171;DHT22;62526;50.948;6.590;2023-03-23T12:49:02;16.90;99.90
74171;DHT22;62526;50.948;6.590;2023-03-23T12:51:51;17.10;99.90
74171;DHT22;62526;50.948;6.590;2023-03-23T12:54:19;16.80;99.90
74171;DHT22;62526;50.948;6.590;2023-03-23T12:56:46;16.20;99.90
74171;DHT22;62526;50.948;6.590;2023-03-23T12:59:36;16.00;99.90
74171;DHT22;62526;50.948;6.590;2023-03-23T13:02:05;15.80;99.90
74171;DHT22;62526;50.948;6.590;2023-03-23T13:04:31;16.00;99.90
74171;DHT22;62526;50.948;6.590;2023-03-23T13:06:56;15.70;99.90
74171;DHT22;62526;50.948;6.590;2023-03-23T13:09:29;15.70;99.90
74171;DHT22;62526;50.948;6.590;2023-03-23T13:11:54;15.70;99.90
74171;DHT22;62526;50.948;6.590;2023-03-23T13:14:29;15.90;99.90
74171;DHT22;62526;50.948;6.590;2023-03-23T13:17:05;15.90;99.90
74171;DHT22;62526;50.948;6.590;2023-03-23T13:19:34;15.70;99.90
74171;DHT22;62526;50.948;6.590;2023-03-23T13:22:06;15.80;99.90
74171;DHT22;62526;50.948;6.590;2023-03-23T13:24:32;15.70;99.90
74171;DHT22;62526;50.948;6.590;2023-03-23T13:26:59;15.60;99.90
74171;DHT22;62526;50.948;6.590;2023-03-23T13:29:25;15.60;99.90
74171;DHT22;62526;50.948;6.590;2023-03-23T13:32:03;15.50;99.90
74171;DHT22;62526;50.948;6.590;2023-03-23T13:34:25;15.00;99.90
74171;DHT22;62526;50.948;6.590;2023-03-23T13:36:55;14.80;99.90
74171;DHT22;62526;50.948;6.590;2023-03-23T13:42:01;16.60;99.90
74171;DHT22;62526;50.948;6.590;2023-03-23T13:44:38;17.70;99.90
74171;DHT22;62526;50.948;6.590;2023-03-23T13:46:55;18.00;99.90
74171;DHT22;62526;50.948;6.590;2023-03-23T13:49:21;18.20;99.90
74171;DHT22;62526;50.948;6.590;2023-03-23T13:52:14;19.30;99.90
74171;DHT22;62526;50.948;6.590;2023-03-23T13:54:41;19.40;99.90
74171;DHT22;62526;50.948;6.590;2023-03-23T13:57:20;18.10;99.90
74171;DHT22;62526;50.948;6.590;2023-03-23T13:59:48;17.70;99.90
74171;DHT22;62526;50.948;6.590;2023-03-23T14:02:37;18.00;99.90
74171;DHT22;62526;50.948;6.590;2023-03-23T14:08:02;18.30;99.90
74171;DHT22;62526;50.948;6.590;2023-03-23T14:10:37;17.50;99.90
74171;DHT22;62526;50.948;6.590;2023-03-23T14:16:00;16.80;99.90
74171;DHT22;62526;50.948;6.590;2023-03-23T14:18:39;16.60;99.90
74171;DHT22;62526;50.948;6.590;2023-03-23T14:21:15;16.40;99.90
74171;DHT22;62526;50.948;6.590;2023-03-23T14:23:49;16.50;99.90
74171;DHT22;62526;50.948;6.590;2023-03-23T14:26:24;16.50;99.90
74171;DHT22;62526;50.948;6.590;2023-03-23T14:28:57;16.40;99.90
74171;DHT22;62526;50.948;6.590;2023-03-23T14:31:26;16.20;99.90
74171;DHT22;62526;50.948;6.590;2023-03-23T14:34:01;16.20;99.90
74171;DHT22;62526;50.948;6.590;2023-03-23T14:36:29;16.20;99.90
74171;DHT22;62526;50.948;6.590;2023-03-23T14:39:03;15.60;99.90
74171;DHT22;62526;50.948;6.590;2023-03-23T14:41:29;15.60;99.90
74171;DHT22;62526;50.948;6.590;2023-03-23T14:43:55;15.50;99.90
74171;DHT22;62526;50.948;6.590;2023-03-23T14:46:22;15.50;99.90
74171;DHT22;62526;50.948;6.590;2023-03-23T14:48:49;15.50;99.90
74171;DHT22;62526;50.948;6.590;2023-03-23T14:51:18;15.70;99.90
74171;DHT22;62526;50.948;6.590;2023-03-23T14:53:43;15.90;99.90
74171;DHT22;62526;50.948;6.590;2023-03-23T14:56:13;15.90;99.90
74171;DHT22;62526;50.948;6.590;2023-03-23T14:58:42;16.00;99.90
74171;DHT22;62526;50.948;6.590;2023-03-23T15:01:08;15.90;99.90
74171;DHT22;62526;50.948;6.590;2023-03-23T15:03:34;15.90;99.90
74171;DHT22;62526;50.948;6.590;2023-03-23T15:06:00;16.10;99.90
74171;DHT22;62526;50.948;6.590;2023-03-23T15:08:27;16.10;99.90
74171;DHT22;62526;50.948;6.590;2023-03-23T15:11:11;16.10;99.90
74171;DHT22;62526;50.948;6.590;2023-03-23T15:13:36;16.60;99.90
74171;DHT22;62526;50.948;6.590;2023-03-23T15:16:05;17.70;99.90
74171;DHT22;62526;50.948;6.590;2023-03-23T15:18:35;18.50;99.90
74171;DHT22;62526;50.948;6.590;2023-03-23T15:21:07;19.30;99.90
74171;DHT22;62526;50.948;6.590;2023-03-23T15:23:28;18.20;99.90
74171;DHT22;62526;50.948;6.590;2023-03-23T15:25:54;18.30;99.90
74171;DHT22;62526;50.948;6.590;2023-03-23T15:31:15;19.00;99.90
74171;DHT22;62526;50.948;6.590;2023-03-23T15:36:43;19.50;99.90
74171;DHT22;62526;50.948;6.590;2023-03-23T15:39:40;19.40;99.90
74171;DHT22;62526;50.948;6.590;2023-03-23T15:42:07;19.40;99.90
74171;DHT22;62526;50.948;6.590;2023-03-23T15:44:34;19.50;99.90
74171;DHT22;62526;50.948;6.590;2023-03-23T15:47:13;18.50;99.90
74171;DHT22;62526;50.948;6.590;2023-03-23T15:52:41;17.60;99.90
74171;DHT22;62526;50.948;6.590;2023-03-23T17:07:41;17.40;99.90
74171;DHT22;62526;50.948;6.590;2023-03-23T17:10:17;17.50;99.90
74171;DHT22;62526;50.948;6.590;2023-03-23T17:12:53;17.40;99.90
74171;DHT22;62526;50.948;6.590;2023-03-23T17:15:21;17.30;99.90
74171;DHT22;62526;50.948;6.590;2023-03-23T17:56:39;15.40;99.90
74171;DHT22;62526;50.948;6.590;2023-03-23T17:59:05;15.30;99.90
74171;DHT22;62526;50.948;6.590;2023-03-23T18:01:34;15.30;99.90
74171;DHT22;62526;50.948;6.590;2023-03-23T18:04:01;15.30;99.90
74171;DHT22;62526;50.948;6.590;2023-03-23T18:06:28;15.20;99.90
74171;DHT22;62526;50.948;6.590;2023-03-23T18:08:54;15.20;99.90
74171;DHT22;62526;50.948;6.590;2023-03-23T18:11:22;15.10;99.90
74171;DHT22;62526;50.948;6.590;2023-03-23T18:13:48;15.00;99.90